createdAt,value
2023-06-03T00:00:57.810Z,7.28
2023-06-03T00:01:57.801Z,7.26
2023-06-03T00:02:57.884Z,7.25
2023-06-03T00:03:57.864Z,7.25
2023-06-03T00:04:57.840Z,7.24
2023-06-03T00:05:57.715Z,7.22
2023-06-03T00:06:57.705Z,7.22
2023-06-03T00:07:57.711Z,7.22
2023-06-03T00:08:57.693Z,7.23
2023-06-03T00:09:57.688Z,7.24
2023-06-03T00:10:57.682Z,7.27
2023-06-03T00:11:57.655Z,7.28
2023-06-03T00:12:57.620Z,7.27
2023-06-03T00:13:57.653Z,7.27
2023-06-03T00:14:57.683Z,7.27
2023-06-03T00:15:57.710Z,7.26
2023-06-03T00:16:57.758Z,7.24
2023-06-03T00:17:57.611Z,7.21
2023-06-03T00:18:57.583Z,7.18
2023-06-03T00:19:57.549Z,7.15
2023-06-03T00:20:57.549Z,7.13
2023-06-03T00:21:57.510Z,7.10
2023-06-03T00:22:57.523Z,7.08
2023-06-03T00:23:57.559Z,7.04
2023-06-03T00:24:57.464Z,7.02
2023-06-03T00:25:57.464Z,7.00
2023-06-03T00:26:57.455Z,6.98
2023-06-03T00:27:57.446Z,6.94
2023-06-03T00:28:57.466Z,6.90
2023-06-03T00:29:57.424Z,6.84
2023-06-03T00:30:57.394Z,6.79
2023-06-03T00:31:57.451Z,6.75
2023-06-03T00:32:57.432Z,6.73
2023-06-03T00:33:57.414Z,6.74
2023-06-03T00:34:57.390Z,6.75
2023-06-03T00:35:57.315Z,6.75
2023-06-03T00:36:57.334Z,6.74
2023-06-03T00:37:57.297Z,6.73
2023-06-03T00:38:57.327Z,6.72
2023-06-03T00:39:57.321Z,6.71
2023-06-03T00:40:57.281Z,6.69
2023-06-03T00:41:57.255Z,6.65
2023-06-03T00:42:57.268Z,6.61
2023-06-03T00:43:57.211Z,6.57
2023-06-03T00:44:57.248Z,6.55
2023-06-03T00:45:57.247Z,6.54
2023-06-03T00:46:57.201Z,6.53
2023-06-03T00:47:57.216Z,6.52
2023-06-03T00:48:57.148Z,6.50
2023-06-03T00:49:57.172Z,6.47
2023-06-03T00:50:57.154Z,6.45
2023-06-03T00:51:57.107Z,6.44
2023-06-03T00:52:57.148Z,6.45
2023-06-03T00:53:57.081Z,6.45
2023-06-03T00:54:57.072Z,6.46
2023-06-03T00:55:57.049Z,6.47
2023-06-03T00:56:57.074Z,6.47
2023-06-03T00:57:57.049Z,6.47
2023-06-03T00:58:57.609Z,6.46
2023-06-03T00:59:57.061Z,6.45
2023-06-03T01:00:57.020Z,6.43
2023-06-03T01:01:57.026Z,6.42
2023-06-03T01:02:57.054Z,6.40
2023-06-03T01:03:56.952Z,6.40
2023-06-03T01:04:56.930Z,6.40
2023-06-03T01:05:56.932Z,6.41
2023-06-03T01:06:56.942Z,6.40
2023-06-03T01:07:56.888Z,6.38
2023-06-03T01:08:56.889Z,6.36
2023-06-03T01:09:56.884Z,6.34
2023-06-03T01:10:56.874Z,6.33
2023-06-03T01:11:56.872Z,6.33
2023-06-03T01:12:56.851Z,6.33
2023-06-03T01:13:56.843Z,6.34
2023-06-03T01:14:56.827Z,6.35
2023-06-03T01:15:56.863Z,6.36
2023-06-03T01:16:56.788Z,6.37
2023-06-03T01:17:56.799Z,6.38
2023-06-03T01:18:56.774Z,6.39
2023-06-03T01:19:56.726Z,6.38
2023-06-03T01:20:56.736Z,6.36
2023-06-03T01:21:56.701Z,6.34
2023-06-03T01:22:56.705Z,6.32
2023-06-03T01:23:56.727Z,6.29
2023-06-03T01:24:56.715Z,6.27
2023-06-03T01:25:56.679Z,6.25
2023-06-03T01:26:56.653Z,6.23
2023-06-03T01:27:56.657Z,6.21
2023-06-03T01:28:56.637Z,6.20
2023-06-03T01:29:56.613Z,6.20
2023-06-03T01:30:56.647Z,6.20
2023-06-03T01:31:56.569Z,6.19
2023-06-03T01:32:56.613Z,6.19
2023-06-03T01:33:56.587Z,6.19
2023-06-03T01:34:56.541Z,6.19
2023-06-03T01:35:56.511Z,6.18
2023-06-03T01:36:56.535Z,6.21
2023-06-03T01:37:56.503Z,6.26
2023-06-03T01:38:56.525Z,6.29
2023-06-03T01:39:56.486Z,6.31
2023-06-03T01:40:56.471Z,6.30
2023-06-03T01:41:56.451Z,6.29
2023-06-03T01:42:56.463Z,6.28
2023-06-03T01:43:56.416Z,6.29
2023-06-03T01:44:56.440Z,6.30
2023-06-03T01:45:56.414Z,6.29
2023-06-03T01:46:56.443Z,6.27
2023-06-03T01:47:56.397Z,6.24
2023-06-03T01:48:56.349Z,6.20
2023-06-03T01:49:56.382Z,6.16
2023-06-03T01:50:56.365Z,6.12
2023-06-03T01:51:56.327Z,6.07
2023-06-03T01:52:56.339Z,6.02
2023-06-03T01:53:56.282Z,5.96
2023-06-03T01:54:56.289Z,5.91
2023-06-03T01:55:56.278Z,5.87
2023-06-03T01:56:56.270Z,5.87
2023-06-03T01:57:56.217Z,5.90
2023-06-03T01:58:56.260Z,5.93
2023-06-03T01:59:56.213Z,5.96
2023-06-03T02:00:56.215Z,5.97
2023-06-03T02:01:56.205Z,5.98
2023-06-03T02:02:56.183Z,6.00
2023-06-03T02:03:56.158Z,6.02
2023-06-03T02:04:56.137Z,6.04
2023-06-03T02:05:56.153Z,6.05
2023-06-03T02:06:56.122Z,6.05
2023-06-03T02:07:56.084Z,6.04
2023-06-03T02:08:56.101Z,6.05
2023-06-03T02:09:56.097Z,6.07
2023-06-03T02:10:56.088Z,6.09
2023-06-03T02:11:56.071Z,6.12
2023-06-03T02:12:56.064Z,6.13
2023-06-03T02:13:56.036Z,6.13
2023-06-03T02:14:56.028Z,6.13
2023-06-03T02:15:56.007Z,6.14
2023-06-03T02:16:56.085Z,6.14
2023-06-03T02:17:55.988Z,6.13
2023-06-03T02:18:56.012Z,6.11
2023-06-03T02:19:55.976Z,6.07
2023-06-03T02:20:55.930Z,6.02
2023-06-03T02:21:55.924Z,5.99
2023-06-03T02:22:55.991Z,5.97
2023-06-03T02:23:55.947Z,5.96
2023-06-03T02:24:55.878Z,5.95
2023-06-03T02:25:55.847Z,5.95
2023-06-03T02:26:55.847Z,5.95
2023-06-03T02:27:55.857Z,5.94
2023-06-03T02:28:55.841Z,5.93
2023-06-03T02:29:55.846Z,5.91
2023-06-03T02:30:55.802Z,5.91
2023-06-03T02:31:55.807Z,5.90
2023-06-03T02:32:55.818Z,5.90
2023-06-03T02:33:55.763Z,5.90
2023-06-03T02:34:55.767Z,5.90
2023-06-03T02:35:55.745Z,5.90
2023-06-03T02:36:55.733Z,5.89
2023-06-03T02:37:55.708Z,5.87
2023-06-03T02:38:55.707Z,5.84
2023-06-03T02:39:55.731Z,5.80
2023-06-03T02:40:55.657Z,5.75
2023-06-03T02:41:55.645Z,5.71
2023-06-03T02:42:55.625Z,5.69
2023-06-03T02:43:55.649Z,5.68
2023-06-03T02:44:55.599Z,5.70
2023-06-03T02:45:55.645Z,5.72
2023-06-03T02:46:55.576Z,5.73
2023-06-03T02:47:55.632Z,5.73
2023-06-03T02:48:55.577Z,5.72
2023-06-03T02:49:55.548Z,5.70
2023-06-03T02:50:55.533Z,5.66
2023-06-03T02:51:55.548Z,5.64
2023-06-03T02:52:55.542Z,5.64
2023-06-03T02:53:55.517Z,5.66
2023-06-03T02:54:55.515Z,5.67
2023-06-03T02:55:55.459Z,5.66
2023-06-03T02:56:55.446Z,5.66
2023-06-03T02:57:55.448Z,5.66
2023-06-03T02:58:55.416Z,5.67
2023-06-03T02:59:55.419Z,5.71
2023-06-03T03:00:55.436Z,5.75
2023-06-03T03:01:55.452Z,5.78
2023-06-03T03:02:55.419Z,5.80
2023-06-03T03:03:55.396Z,5.79
2023-06-03T03:04:55.337Z,5.76
2023-06-03T03:05:55.393Z,5.72
2023-06-03T03:06:55.376Z,5.71
2023-06-03T03:07:55.335Z,5.73
2023-06-03T03:08:57.881Z,5.77
2023-06-03T03:09:55.303Z,5.80
2023-06-03T03:10:55.252Z,5.82
2023-06-03T03:11:55.267Z,5.83
2023-06-03T03:12:55.236Z,5.85
2023-06-03T03:13:55.218Z,5.87
2023-06-03T03:14:55.261Z,5.90
2023-06-03T03:15:55.228Z,5.95
2023-06-03T03:16:55.202Z,6.01
2023-06-03T03:17:55.217Z,6.06
2023-06-03T03:18:55.171Z,6.11
2023-06-03T03:19:55.140Z,6.15
2023-06-03T03:20:55.160Z,6.19
2023-06-03T03:21:55.181Z,6.22
2023-06-03T03:22:55.115Z,6.23
2023-06-03T03:23:55.152Z,6.23
2023-06-03T03:24:55.085Z,6.22
2023-06-03T03:25:55.121Z,6.24
2023-06-03T03:26:55.070Z,6.28
2023-06-03T03:27:55.048Z,6.31
2023-06-03T03:28:55.141Z,6.33
2023-06-03T03:29:55.036Z,6.36
2023-06-03T03:30:54.999Z,6.38
2023-06-03T03:31:55.080Z,6.41
2023-06-03T03:32:55.047Z,6.44
2023-06-03T03:33:54.969Z,6.46
2023-06-03T03:34:54.971Z,6.48
2023-06-03T03:35:54.932Z,6.51
2023-06-03T03:36:54.930Z,6.52
2023-06-03T03:37:54.901Z,6.53
2023-06-03T03:38:54.891Z,6.56
2023-06-03T03:39:54.875Z,6.59
2023-06-03T03:40:54.891Z,6.62
2023-06-03T03:41:54.878Z,6.64
2023-06-03T03:42:54.837Z,6.66
2023-06-03T03:43:54.863Z,6.69
2023-06-03T03:44:54.820Z,6.71
2023-06-03T03:45:54.807Z,6.72
2023-06-03T03:46:54.799Z,6.73
2023-06-03T03:47:54.802Z,6.75
2023-06-03T03:48:54.751Z,6.76
2023-06-03T03:49:54.746Z,6.78
2023-06-03T03:50:54.727Z,6.80
2023-06-03T03:51:54.711Z,6.83
2023-06-03T03:52:54.689Z,6.85
2023-06-03T03:53:54.711Z,6.86
2023-06-03T03:54:54.751Z,6.86
2023-06-03T03:55:54.672Z,6.86
2023-06-03T03:56:54.664Z,6.87
2023-06-03T03:57:54.685Z,6.87
2023-06-03T03:58:54.639Z,6.87
2023-06-03T03:59:54.628Z,6.88
2023-06-03T04:00:54.608Z,6.89
2023-06-03T04:01:54.612Z,6.92
2023-06-03T04:02:54.598Z,6.95
2023-06-03T04:03:54.613Z,6.98
2023-06-03T04:04:54.554Z,7.01
2023-06-03T04:05:54.548Z,7.05
2023-06-03T04:06:54.512Z,7.09
2023-06-03T04:07:54.518Z,7.12
2023-06-03T04:08:54.480Z,7.14
2023-06-03T04:09:54.490Z,7.16
2023-06-03T04:10:54.493Z,7.17
2023-06-03T04:11:54.466Z,7.18
2023-06-03T04:12:54.433Z,7.20
2023-06-03T04:13:54.434Z,7.20
2023-06-03T04:14:54.401Z,7.19
2023-06-03T04:15:54.467Z,7.18
2023-06-03T04:16:54.411Z,7.16
2023-06-03T04:17:54.462Z,7.16
2023-06-03T04:18:54.406Z,7.17
2023-06-03T04:19:54.343Z,7.20
2023-06-03T04:20:54.324Z,7.24
2023-06-03T04:21:54.345Z,7.29
2023-06-03T04:22:54.304Z,7.34
2023-06-03T04:23:54.311Z,7.37
2023-06-03T04:24:54.267Z,7.39
2023-06-03T04:25:54.258Z,7.41
2023-06-03T04:26:54.265Z,7.42
2023-06-03T04:27:54.276Z,7.44
2023-06-03T04:28:54.238Z,7.48
2023-06-03T04:29:54.224Z,7.51
2023-06-03T04:30:54.226Z,7.54
2023-06-03T04:31:54.244Z,7.57
2023-06-03T04:32:54.208Z,7.59
2023-06-03T04:33:54.170Z,7.60
2023-06-03T04:34:54.176Z,7.60
2023-06-03T04:35:54.178Z,7.61
2023-06-03T04:36:54.116Z,7.63
2023-06-03T04:37:54.130Z,7.65
2023-06-03T04:38:54.086Z,7.68
2023-06-03T04:39:54.118Z,7.72
2023-06-03T04:40:54.071Z,7.76
2023-06-03T04:41:54.075Z,7.82
2023-06-03T04:42:54.062Z,7.89
2023-06-03T04:43:54.055Z,7.95
2023-06-03T04:44:54.037Z,8.01
2023-06-03T04:45:54.030Z,8.06
2023-06-03T04:46:54.044Z,8.12
2023-06-03T04:47:54.088Z,8.17
2023-06-03T04:48:53.978Z,8.21
2023-06-03T04:49:53.981Z,8.23
2023-06-03T04:50:54.001Z,8.26
2023-06-03T04:51:53.946Z,8.28
2023-06-03T04:52:53.897Z,8.30
2023-06-03T04:53:53.897Z,8.32
2023-06-03T04:54:53.882Z,8.34
2023-06-03T04:55:53.875Z,8.36
2023-06-03T04:56:53.864Z,8.38
2023-06-03T04:57:53.841Z,8.40
2023-06-03T04:58:53.835Z,8.44
2023-06-03T04:59:53.819Z,8.48
2023-06-03T05:00:53.808Z,8.53
2023-06-03T05:01:53.929Z,8.57
2023-06-03T05:02:53.891Z,8.62
2023-06-03T05:03:53.782Z,8.68
2023-06-03T05:04:53.770Z,8.76
2023-06-03T05:05:53.749Z,8.82
2023-06-03T05:06:53.718Z,8.87
2023-06-03T05:07:53.730Z,8.90
2023-06-03T05:08:53.726Z,8.93
2023-06-03T05:09:53.695Z,8.95
2023-06-03T05:10:53.681Z,8.98
2023-06-03T05:11:53.690Z,9.01
2023-06-03T05:12:53.639Z,9.03
2023-06-03T05:13:53.636Z,9.06
2023-06-03T05:14:53.612Z,9.08
2023-06-03T05:15:53.622Z,9.08
2023-06-03T05:16:53.631Z,9.09
2023-06-03T05:17:53.643Z,9.11
2023-06-03T05:18:53.567Z,9.13
2023-06-03T05:19:53.569Z,9.14
2023-06-03T05:20:53.543Z,9.16
2023-06-03T05:21:53.527Z,9.19
2023-06-03T05:22:53.530Z,9.23
2023-06-03T05:23:53.657Z,9.26
2023-06-03T05:24:53.478Z,9.29
2023-06-03T05:25:53.512Z,9.30
2023-06-03T05:26:53.477Z,9.31
2023-06-03T05:28:03.045Z,9.32
2023-06-03T05:28:53.422Z,9.35
2023-06-03T05:29:53.416Z,9.37
2023-06-03T05:30:53.412Z,9.38
2023-06-03T05:31:53.447Z,9.38
2023-06-03T05:32:53.506Z,9.38
2023-06-03T05:33:53.364Z,9.39
2023-06-03T05:34:53.373Z,9.41
2023-06-03T05:35:53.339Z,9.44
2023-06-03T05:36:53.321Z,9.47
2023-06-03T05:37:53.320Z,9.50
2023-06-03T05:38:53.308Z,9.54
2023-06-03T05:39:53.286Z,9.59
2023-06-03T05:40:53.287Z,9.64
2023-06-03T05:41:53.265Z,9.67
2023-06-03T05:42:53.273Z,9.71
2023-06-03T05:43:53.265Z,9.77
2023-06-03T05:44:53.236Z,9.82
2023-06-03T05:45:53.277Z,9.87
2023-06-03T05:46:53.192Z,9.93
2023-06-03T05:47:53.267Z,9.99
2023-06-03T05:48:53.192Z,10.05
2023-06-03T05:49:53.193Z,10.12
2023-06-03T05:50:53.158Z,10.20
2023-06-03T05:51:53.181Z,10.27
2023-06-03T05:52:53.129Z,10.33
2023-06-03T05:53:53.151Z,10.38
2023-06-03T05:54:53.116Z,10.44
2023-06-03T05:55:53.109Z,10.49
2023-06-03T05:56:53.091Z,10.52
2023-06-03T05:57:53.089Z,10.55
2023-06-03T05:58:53.034Z,10.58
2023-06-03T05:59:53.045Z,10.62
2023-06-03T06:00:53.038Z,10.65
2023-06-03T06:01:53.026Z,10.66
2023-06-03T06:02:53.091Z,10.66
2023-06-03T06:03:53.694Z,10.68
2023-06-03T06:04:53.055Z,10.72
2023-06-03T06:05:52.966Z,10.78
2023-06-03T06:06:52.954Z,10.84
2023-06-03T06:07:52.930Z,10.89
2023-06-03T06:08:52.911Z,10.94
2023-06-03T06:09:52.909Z,10.99
2023-06-03T06:10:52.871Z,11.05
2023-06-03T06:11:52.870Z,11.10
2023-06-03T06:12:52.869Z,11.14
2023-06-03T06:13:52.860Z,11.18
2023-06-03T06:14:52.818Z,11.22
2023-06-03T06:15:52.879Z,11.25
2023-06-03T06:16:52.806Z,11.28
2023-06-03T06:17:52.855Z,11.30
2023-06-03T06:18:52.752Z,11.31
2023-06-03T06:19:52.772Z,11.31
2023-06-03T06:20:52.742Z,11.33
2023-06-03T06:21:52.728Z,11.38
2023-06-03T06:22:52.733Z,11.43
2023-06-03T06:23:52.792Z,11.47
2023-06-03T06:24:52.688Z,11.53
2023-06-03T06:25:52.679Z,11.63
2023-06-03T06:26:52.658Z,11.74
2023-06-03T06:27:52.641Z,11.83
2023-06-03T06:28:52.651Z,11.89
2023-06-03T06:29:52.607Z,11.91
2023-06-03T06:30:52.613Z,11.93
2023-06-03T06:31:52.674Z,11.93
2023-06-03T06:32:52.698Z,11.94
2023-06-03T06:33:52.560Z,11.99
2023-06-03T06:34:52.554Z,12.07
2023-06-03T06:35:52.538Z,12.13
2023-06-03T06:36:52.528Z,12.17
2023-06-03T06:37:52.549Z,12.19
2023-06-03T06:38:52.508Z,12.22
2023-06-03T06:39:52.506Z,12.28
2023-06-03T06:40:52.489Z,12.35
2023-06-03T06:41:52.468Z,12.42
2023-06-03T06:42:52.428Z,12.48
2023-06-03T06:43:52.422Z,12.53
2023-06-03T06:44:52.409Z,12.55
2023-06-03T06:45:52.451Z,12.56
2023-06-03T06:46:52.395Z,12.56
2023-06-03T06:47:52.406Z,12.54
2023-06-03T06:48:52.363Z,12.49
2023-06-03T06:49:52.351Z,12.40
2023-06-03T06:50:52.350Z,12.36
2023-06-03T06:51:52.326Z,12.42
2023-06-03T06:52:52.307Z,12.56
2023-06-03T06:53:52.308Z,12.68
2023-06-03T06:54:52.300Z,12.73
2023-06-03T06:55:52.278Z,12.76
2023-06-03T06:56:52.269Z,12.83
2023-06-03T06:57:52.330Z,12.91
2023-06-03T06:58:52.272Z,13.00
2023-06-03T06:59:52.239Z,13.04
2023-06-03T07:00:52.261Z,13.00
2023-06-03T07:01:52.253Z,12.88
2023-06-03T07:02:52.251Z,12.78
2023-06-03T07:03:52.207Z,12.79
2023-06-03T07:04:52.156Z,12.89
2023-06-03T07:05:52.125Z,13.02
2023-06-03T07:06:52.123Z,13.13
2023-06-03T07:07:52.094Z,13.20
2023-06-03T07:08:52.111Z,13.22
2023-06-03T07:09:52.100Z,13.23
2023-06-03T07:10:52.088Z,13.27
2023-06-03T07:11:52.043Z,13.34
2023-06-03T07:12:52.051Z,13.42
2023-06-03T07:13:52.056Z,13.47
2023-06-03T07:14:52.009Z,13.48
2023-06-03T07:15:52.005Z,13.50
2023-06-03T07:16:52.063Z,13.54
2023-06-03T07:17:52.023Z,13.61
2023-06-03T07:18:51.976Z,13.68
2023-06-03T07:19:51.942Z,13.69
2023-06-03T07:20:51.927Z,13.70
2023-06-03T07:21:51.940Z,13.71
2023-06-03T07:22:51.955Z,13.71
2023-06-03T07:23:51.966Z,13.73
2023-06-03T07:24:51.895Z,13.77
2023-06-03T07:25:51.891Z,13.82
2023-06-03T07:26:51.892Z,13.89
2023-06-03T07:27:51.877Z,13.98
2023-06-03T07:28:51.863Z,14.05
2023-06-03T07:29:51.804Z,14.09
2023-06-03T07:30:51.799Z,14.11
2023-06-03T07:31:51.876Z,14.09
2023-06-03T07:32:51.800Z,14.10
2023-06-03T07:33:51.814Z,14.15
2023-06-03T07:34:51.738Z,14.22
2023-06-03T07:35:51.717Z,14.28
2023-06-03T07:36:51.714Z,14.28
2023-06-03T07:37:51.707Z,14.26
2023-06-03T07:38:51.681Z,14.25
2023-06-03T07:39:51.687Z,14.23
2023-06-03T07:40:51.655Z,14.13
2023-06-03T07:41:51.752Z,14.10
2023-06-03T07:42:51.648Z,14.16
2023-06-03T07:43:51.641Z,14.25
2023-06-03T07:44:51.619Z,14.37
2023-06-03T07:45:51.604Z,14.49
2023-06-03T07:46:51.626Z,14.57
2023-06-03T07:47:51.564Z,14.66
2023-06-03T07:48:51.632Z,14.80
2023-06-03T07:49:51.568Z,14.93
2023-06-03T07:50:51.541Z,15.06
2023-06-03T07:51:51.557Z,15.23
2023-06-03T07:52:51.493Z,15.42
2023-06-03T07:53:51.492Z,15.66
2023-06-03T07:54:51.463Z,15.87
2023-06-03T07:55:51.476Z,16.00
2023-06-03T07:56:51.459Z,16.05
2023-06-03T07:57:51.415Z,16.06
2023-06-03T07:58:51.417Z,16.08
2023-06-03T07:59:51.398Z,16.13
2023-06-03T08:00:51.380Z,16.09
2023-06-03T08:01:51.401Z,16.01
2023-06-03T08:02:51.535Z,16.00
2023-06-03T08:03:51.331Z,16.08
2023-06-03T08:04:51.356Z,16.20
2023-06-03T08:05:51.306Z,16.21
2023-06-03T08:06:51.359Z,16.20
2023-06-03T08:07:51.303Z,16.30
2023-06-03T08:08:51.269Z,16.47
2023-06-03T08:09:51.261Z,16.61
2023-06-03T08:10:51.266Z,16.62
2023-06-03T08:11:51.249Z,16.41
2023-06-03T08:12:51.232Z,16.12
2023-06-03T08:13:51.203Z,16.02
2023-06-03T08:14:51.223Z,16.02
2023-06-03T08:15:51.205Z,16.02
2023-06-03T08:16:51.209Z,15.96
2023-06-03T08:17:51.224Z,15.96
2023-06-03T08:18:51.143Z,16.08
2023-06-03T08:19:51.154Z,16.21
2023-06-03T08:20:51.138Z,16.26
2023-06-03T08:21:51.100Z,16.13
2023-06-03T08:22:51.118Z,15.95
2023-06-03T08:23:51.136Z,15.90
2023-06-03T08:24:51.099Z,15.97
2023-06-03T08:25:51.061Z,16.13
2023-06-03T08:26:51.080Z,16.36
2023-06-03T08:27:51.051Z,16.62
2023-06-03T08:28:51.036Z,16.75
2023-06-03T08:29:51.021Z,16.74
2023-06-03T08:30:51.006Z,16.69
2023-06-03T08:31:51.118Z,16.66
2023-06-03T08:32:51.040Z,16.75
2023-06-03T08:33:50.963Z,16.96
2023-06-03T08:34:50.955Z,17.15
2023-06-03T08:35:50.917Z,17.30
2023-06-03T08:36:50.930Z,17.49
2023-06-03T08:37:50.939Z,17.68
2023-06-03T08:38:50.915Z,17.80
2023-06-03T08:39:50.872Z,17.91
2023-06-03T08:40:50.886Z,17.89
2023-06-03T08:41:50.855Z,17.74
2023-06-03T08:42:50.855Z,17.60
2023-06-03T08:43:50.822Z,17.51
2023-06-03T08:44:50.837Z,17.48
2023-06-03T08:45:50.817Z,17.47
2023-06-03T08:46:50.799Z,17.39
2023-06-03T08:47:50.826Z,17.36
2023-06-03T08:48:50.771Z,17.43
2023-06-03T08:49:50.754Z,17.55
2023-06-03T08:50:50.729Z,17.70
2023-06-03T08:51:50.724Z,17.78
2023-06-03T08:52:50.697Z,17.79
2023-06-03T08:53:50.699Z,17.72
2023-06-03T08:54:50.675Z,17.54
2023-06-03T08:55:50.649Z,17.40
2023-06-03T08:56:50.646Z,17.24
2023-06-03T08:57:50.629Z,17.04
2023-06-03T08:58:50.634Z,16.99
2023-06-03T08:59:50.616Z,16.99
2023-06-03T09:00:50.587Z,16.99
2023-06-03T09:01:50.656Z,17.14
2023-06-03T09:02:50.637Z,17.28
2023-06-03T09:03:50.591Z,17.31
2023-06-03T09:04:50.542Z,17.37
2023-06-03T09:05:50.545Z,17.51
2023-06-03T09:06:50.552Z,17.51
2023-06-03T09:07:50.492Z,17.26
2023-06-03T09:08:50.522Z,17.09
2023-06-03T09:09:50.488Z,17.14
2023-06-03T09:10:50.476Z,17.31
2023-06-03T09:11:50.437Z,17.62
2023-06-03T09:12:50.449Z,17.84
2023-06-03T09:13:50.416Z,17.91
2023-06-03T09:14:50.418Z,18.02
2023-06-03T09:15:50.476Z,18.17
2023-06-03T09:16:50.398Z,18.37
2023-06-03T09:17:50.372Z,18.64
2023-06-03T09:18:50.386Z,19.00
2023-06-03T09:19:50.343Z,19.41
2023-06-03T09:20:50.346Z,19.76
2023-06-03T09:21:50.316Z,19.84
2023-06-03T09:22:50.318Z,19.75
2023-06-03T09:23:50.310Z,19.62
2023-06-03T09:24:50.310Z,19.56
2023-06-03T09:25:50.277Z,19.66
2023-06-03T09:26:50.267Z,19.85
2023-06-03T09:27:50.242Z,20.01
2023-06-03T09:28:50.318Z,20.06
2023-06-03T09:29:50.201Z,20.15
2023-06-03T09:30:50.208Z,20.31
2023-06-03T09:31:50.228Z,20.41
2023-06-03T09:32:50.248Z,20.44
2023-06-03T09:33:50.168Z,20.47
2023-06-03T09:34:50.146Z,20.47
2023-06-03T09:35:50.151Z,20.39
2023-06-03T09:36:50.138Z,20.18
2023-06-03T09:37:50.132Z,19.78
2023-06-03T09:38:50.113Z,19.38
2023-06-03T09:39:50.101Z,19.14
2023-06-03T09:40:50.072Z,19.12
2023-06-03T09:41:50.100Z,19.29
2023-06-03T09:42:50.067Z,19.47
2023-06-03T09:43:50.044Z,19.47
2023-06-03T09:44:50.016Z,19.46
2023-06-03T09:45:50.015Z,19.54
2023-06-03T09:46:50.062Z,19.57
2023-06-03T09:47:50.053Z,19.43
2023-06-03T09:48:49.969Z,19.30
2023-06-03T09:49:50.828Z,19.38
2023-06-03T09:50:49.939Z,19.45
2023-06-03T09:51:49.951Z,19.47
2023-06-03T09:52:49.936Z,19.49
2023-06-03T09:53:49.916Z,19.34
2023-06-03T09:54:49.890Z,19.23
2023-06-03T09:55:49.877Z,19.28
2023-06-03T09:56:49.906Z,19.41
2023-06-03T09:57:49.858Z,19.69
2023-06-03T09:58:49.840Z,20.08
2023-06-03T09:59:49.831Z,20.45
2023-06-03T10:00:50.145Z,20.73
2023-06-03T10:01:49.842Z,20.93
2023-06-03T10:02:49.924Z,20.70
2023-06-03T10:03:49.799Z,20.29
2023-06-03T10:04:49.782Z,20.20
2023-06-03T10:05:49.785Z,20.40
2023-06-03T10:06:49.747Z,20.54
2023-06-03T10:07:49.739Z,20.55
2023-06-03T10:08:49.744Z,20.56
2023-06-03T10:09:49.720Z,20.69
2023-06-03T10:10:49.718Z,21.05
2023-06-03T10:11:49.678Z,21.30
2023-06-03T10:12:49.668Z,21.04
2023-06-03T10:13:49.732Z,20.64
2023-06-03T10:14:49.692Z,20.26
2023-06-03T10:15:49.632Z,19.94
2023-06-03T10:16:49.678Z,19.86
2023-06-03T10:17:49.692Z,19.67
2023-06-03T10:18:49.640Z,19.35
2023-06-03T10:19:49.623Z,19.06
2023-06-03T10:20:49.576Z,19.02
2023-06-03T10:21:49.571Z,19.03
2023-06-03T10:22:49.570Z,18.97
2023-06-03T10:23:49.620Z,19.07
2023-06-03T10:24:49.539Z,19.27
2023-06-03T10:25:49.532Z,19.37
2023-06-03T10:26:49.534Z,19.34
2023-06-03T10:27:49.484Z,19.53
2023-06-03T10:28:49.484Z,20.02
2023-06-03T10:29:49.458Z,20.56
2023-06-03T10:30:49.494Z,21.06
2023-06-03T10:31:49.450Z,21.47
2023-06-03T10:32:49.480Z,21.84
2023-06-03T10:33:49.421Z,22.17
2023-06-03T10:34:49.406Z,22.17
2023-06-03T10:35:49.429Z,22.04
2023-06-03T10:36:49.437Z,22.13
2023-06-03T10:37:49.396Z,22.27
2023-06-03T10:38:49.356Z,22.10
2023-06-03T10:39:49.352Z,21.76
2023-06-03T10:40:49.344Z,21.48
2023-06-03T10:41:49.330Z,21.27
2023-06-03T10:42:49.328Z,21.05
2023-06-03T10:43:49.297Z,20.80
2023-06-03T10:44:49.300Z,20.71
2023-06-03T10:45:49.319Z,20.79
2023-06-03T10:46:49.287Z,20.85
2023-06-03T10:47:49.316Z,20.95
2023-06-03T10:48:49.266Z,21.19
2023-06-03T10:49:49.263Z,21.50
2023-06-03T10:50:49.215Z,21.64
2023-06-03T10:51:49.222Z,21.53
2023-06-03T10:52:49.201Z,21.32
2023-06-03T10:53:49.190Z,21.06
2023-06-03T10:54:49.177Z,20.94
2023-06-03T10:55:49.226Z,20.93
2023-06-03T10:56:49.157Z,21.02
2023-06-03T10:57:49.130Z,21.40
2023-06-03T10:58:49.252Z,22.05
2023-06-03T10:59:49.129Z,22.05
2023-06-03T11:00:49.132Z,21.70
2023-06-03T11:01:49.187Z,21.67
2023-06-03T11:02:49.179Z,21.91
2023-06-03T11:03:49.134Z,22.33
2023-06-03T11:04:49.079Z,22.71
2023-06-03T11:05:49.071Z,22.83
2023-06-03T11:06:49.032Z,22.81
2023-06-03T11:07:49.060Z,22.78
2023-06-03T11:08:49.026Z,22.55
2023-06-03T11:09:49.222Z,22.22
2023-06-03T11:10:49.000Z,21.80
2023-06-03T11:11:48.974Z,21.31
2023-06-03T11:12:48.991Z,21.05
2023-06-03T11:13:49.013Z,21.17
2023-06-03T11:14:48.942Z,21.46
2023-06-03T11:15:48.934Z,21.87
2023-06-03T11:16:48.944Z,22.28
2023-06-03T11:17:48.984Z,22.34
2023-06-03T11:18:48.895Z,22.19
2023-06-03T11:19:48.907Z,22.19
2023-06-03T11:20:48.871Z,22.26
2023-06-03T11:21:48.895Z,22.19
2023-06-03T11:22:48.840Z,22.13
2023-06-03T11:23:48.874Z,22.32
2023-06-03T11:24:48.839Z,22.53
2023-06-03T11:25:48.844Z,22.25
2023-06-03T11:26:48.780Z,22.04
2023-06-03T11:27:48.784Z,21.90
2023-06-03T11:28:48.767Z,21.56
2023-06-03T11:29:48.763Z,20.99
2023-06-03T11:30:48.742Z,20.50
2023-06-03T11:31:48.777Z,20.40
2023-06-03T11:32:48.794Z,20.59
2023-06-03T11:33:48.718Z,20.86
2023-06-03T11:34:48.711Z,21.08
2023-06-03T11:35:48.716Z,21.24
2023-06-03T11:36:48.683Z,21.41
2023-06-03T11:37:48.675Z,21.77
2023-06-03T11:38:48.650Z,22.17
2023-06-03T11:39:48.658Z,22.52
2023-06-03T11:40:48.626Z,22.80
2023-06-03T11:41:48.641Z,22.87
2023-06-03T11:42:48.715Z,22.78
2023-06-03T11:43:48.586Z,22.74
2023-06-03T11:44:48.580Z,22.92
2023-06-03T11:45:48.580Z,23.07
2023-06-03T11:46:48.648Z,22.74
2023-06-03T11:47:48.644Z,22.31
2023-06-03T11:48:48.578Z,21.99
2023-06-03T11:49:48.511Z,21.77
2023-06-03T11:50:48.498Z,21.63
2023-06-03T11:51:48.483Z,21.53
2023-06-03T11:52:50.561Z,21.43
2023-06-03T11:53:48.462Z,21.33
2023-06-03T11:54:48.469Z,21.28
2023-06-03T11:55:48.427Z,21.50
2023-06-03T11:56:48.441Z,21.65
2023-06-03T11:57:48.453Z,21.50
2023-06-03T11:58:48.410Z,21.04
2023-06-03T11:59:48.398Z,20.65
2023-06-03T12:00:48.381Z,20.31
2023-06-03T12:01:48.359Z,19.94
2023-06-03T12:02:48.610Z,19.67
2023-06-03T12:03:48.385Z,19.63
2023-06-03T12:04:48.336Z,19.79
2023-06-03T12:05:48.327Z,20.02
2023-06-03T12:06:48.307Z,20.14
2023-06-03T12:07:48.304Z,20.21
2023-06-03T12:08:48.266Z,20.27
2023-06-03T12:09:48.262Z,20.47
2023-06-03T12:10:48.268Z,20.60
2023-06-03T12:11:48.281Z,20.63
2023-06-03T12:12:48.229Z,20.84
2023-06-03T12:13:48.237Z,21.14
2023-06-03T12:14:48.228Z,21.35
2023-06-03T12:15:48.252Z,21.54
2023-06-03T12:16:48.182Z,21.73
2023-06-03T12:17:48.240Z,21.95
2023-06-03T12:18:48.155Z,22.14
2023-06-03T12:19:48.173Z,22.26
2023-06-03T12:20:53.991Z,22.56
2023-06-03T12:21:48.110Z,22.89
2023-06-03T12:22:48.110Z,23.16
2023-06-03T12:23:48.109Z,23.22
2023-06-03T12:24:48.068Z,23.04
2023-06-03T12:25:48.068Z,23.05
2023-06-03T12:26:48.056Z,23.18
2023-06-03T12:27:48.053Z,23.15
2023-06-03T12:28:48.018Z,23.08
2023-06-03T12:29:48.028Z,23.12
2023-06-03T12:30:48.060Z,23.21
2023-06-03T12:31:48.051Z,23.12
2023-06-03T12:32:48.117Z,22.88
2023-06-03T12:33:47.980Z,22.71
2023-06-03T12:34:47.981Z,22.57
2023-06-03T12:35:47.973Z,22.39
2023-06-03T12:36:47.964Z,22.13
2023-06-03T12:37:47.946Z,22.01
2023-06-03T12:38:47.902Z,22.09
2023-06-03T12:39:47.900Z,22.17
2023-06-03T12:40:47.899Z,22.33
2023-06-03T12:41:47.877Z,22.59
2023-06-03T12:42:47.871Z,22.78
2023-06-03T12:43:47.842Z,22.94
2023-06-03T12:44:47.851Z,23.12
2023-06-03T12:45:47.843Z,23.26
2023-06-03T12:46:47.821Z,23.28
2023-06-03T12:47:48.627Z,23.24
2023-06-03T12:48:47.840Z,23.19
2023-06-03T12:49:47.771Z,23.07
2023-06-03T12:50:47.770Z,23.07
2023-06-03T12:51:47.753Z,23.21
2023-06-03T12:52:47.755Z,23.37
2023-06-03T12:53:47.760Z,23.58
2023-06-03T12:54:47.707Z,23.85
2023-06-03T12:55:47.738Z,24.03
2023-06-03T12:56:47.718Z,24.18
2023-06-03T12:57:47.770Z,24.07
2023-06-03T12:58:47.681Z,23.91
2023-06-03T12:59:48.048Z,23.89
2023-06-03T13:00:47.678Z,23.86
2023-06-03T13:01:47.657Z,23.95
2023-06-03T13:02:47.709Z,24.01
2023-06-03T13:03:47.678Z,23.93